Time;durP1;ratioP1;P1;durP2;ratioP2;P2;SDS_P1;SDS_P2;PMS_P1;PMS_P2;Temp;Humidity;BMP_temperature;BMP_pressure;BME280_temperature;BME280_humidity;BME280_pressure;Samples;Min_cycle;Max_cycle;Signal;HPM_P1;HPM_P2
2023/04/22 00:00:20;;;;;;;3.83;3.07;;;;;;;7.04;94.45;100743.09;5096041;28;20077;-81
2023/04/22 00:02:45;;;;;;;3.65;2.90;;;;;;;7.01;92.96;100737.94;5095388;28;20081;-81
2023/04/22 00:05:12;;;;;;;3.50;2.80;;;;;;;7.03;92.34;100746.56;5095736;28;20024;-81
2023/04/22 00:07:39;;;;;;;3.47;2.42;;;;;;;7.01;92.19;100748.28;5095705;28;20373;-81
2023/04/22 00:10:06;;;;;;;3.78;2.75;;;;;;;6.99;91.74;100740.53;5095405;28;20047;-81
2023/04/22 00:12:31;;;;;;;3.38;2.60;;;;;;;7.00;91.90;100737.09;5095806;28;20028;-81
2023/04/22 00:14:56;;;;;;;3.15;2.40;;;;;;;6.99;91.63;100730.22;5095722;28;20034;-81
2023/04/22 00:17:22;;;;;;;2.70;2.30;;;;;;;6.99;91.59;100721.59;5094488;28;20024;-81
2023/04/22 00:19:47;;;;;;;2.63;2.40;;;;;;;6.98;91.46;100730.25;5095822;28;20048;-81
2023/04/22 00:22:13;;;;;;;3.23;2.40;;;;;;;6.97;90.94;100723.34;5095746;28;20020;-81
2023/04/22 00:24:38;;;;;;;2.97;2.50;;;;;;;6.92;91.14;100726.78;5094758;28;20402;-81
2023/04/22 00:27:03;;;;;;;2.63;2.40;;;;;;;6.88;91.50;100727.66;5095581;28;20024;-81
2023/04/22 00:29:29;;;;;;;2.95;2.40;;;;;;;6.81;91.24;100731.13;5095202;28;20027;-81
2023/04/22 00:31:54;;;;;;;2.93;2.47;;;;;;;6.76;91.26;100725.97;5095280;28;20035;-81
2023/04/22 00:34:19;;;;;;;2.80;2.47;;;;;;;6.71;90.83;100732.00;5095176;28;20063;-81
2023/04/22 00:36:45;;;;;;;3.13;2.42;;;;;;;6.68;90.93;100731.97;5095277;28;20024;-81
2023/04/22 00:39:11;;;;;;;4.30;2.40;;;;;;;6.67;90.70;100735.41;5095145;28;20472;-81
2023/04/22 00:41:38;;;;;;;4.57;3.20;;;;;;;6.61;93.13;100733.69;5095077;28;20441;-81
2023/04/22 00:44:03;;;;;;;;;;;;;;;6.59;92.64;100733.72;5094827;28;20028;-81
2023/04/22 00:46:29;;;;;;;4.60;3.23;;;;;;;6.59;91.66;100736.28;5094846;28;20423;-81
2023/04/22 00:48:56;;;;;;;3.92;3.10;;;;;;;6.53;91.83;100725.13;5080013;28;20838;-81
2023/04/22 00:51:21;;;;;;;3.75;2.78;;;;;;;6.57;91.80;100737.16;5073801;28;20024;-81
2023/04/22 00:53:46;;;;;;;3.27;2.50;;;;;;;6.56;91.75;100736.28;5074850;28;20078;-81
2023/04/22 00:56:12;;;;;;;2.60;2.37;;;;;;;6.58;91.70;100738.88;5074268;28;20024;-81
2023/04/22 00:58:37;;;;;;;2.73;2.40;;;;;;;6.57;91.75;100740.59;5073655;28;20017;-81
2023/04/22 01:01:02;;;;;;;2.47;2.20;;;;;;;6.56;91.57;100736.28;5074142;28;20021;-81
2023/04/22 01:03:29;;;;;;;3.17;2.40;;;;;;;6.56;92.77;100738.03;5073831;28;20105;-81
2023/04/22 01:05:55;;;;;;;2.97;2.40;;;;;;;6.55;91.78;100734.56;5073866;28;20031;-81
2023/04/22 01:08:20;;;;;;;3.67;2.58;;;;;;;6.56;92.04;100735.44;5074390;28;20025;-81
2023/04/22 01:10:45;;;;;;;3.10;2.60;;;;;;;6.57;91.57;100725.13;5074166;28;20365;-81
2023/04/22 01:13:11;;;;;;;2.35;2.15;;;;;;;6.55;92.06;100724.25;5073730;28;20064;-82
2023/04/22 01:15:36;;;;;;;3.00;2.40;;;;;;;6.58;91.84;100719.09;5073903;28;20032;-81
2023/04/22 01:18:02;;;;;;;3.53;2.70;;;;;;;6.59;91.65;100720.81;5074353;28;20040;-81
2023/04/22 01:20:28;;;;;;;3.75;2.75;;;;;;;6.61;92.44;100713.06;5073533;28;20048;-81
2023/04/22 01:22:56;;;;;;;2.70;2.50;;;;;;;6.61;92.13;100710.50;5074366;28;20032;-81
2023/04/22 01:25:22;;;;;;;3.40;2.50;;;;;;;6.64;92.57;100718.25;5074019;28;20043;-81
2023/04/22 01:27:48;;;;;;;2.60;2.40;;;;;;;6.63;92.79;100713.94;5073378;28;20339;-81
2023/04/22 01:30:14;;;;;;;2.83;2.43;;;;;;;6.65;92.18;100717.38;5074054;28;20028;-80
2023/04/22 01:32:40;;;;;;;2.87;2.50;;;;;;;6.65;92.27;100717.38;5073785;28;20028;-81
2023/04/22 01:35:06;;;;;;;2.78;2.40;;;;;;;6.68;92.88;100724.25;5073428;28;20098;-81
2023/04/22 01:37:31;;;;;;;2.57;2.23;;;;;;;6.66;92.54;100716.53;5073637;28;20020;-81
2023/04/22 01:39:58;;;;;;;3.75;2.78;;;;;;;6.64;92.12;100716.50;5074233;28;20043;-81
2023/04/22 01:42:27;;;;;;;3.08;2.53;;;;;;;6.67;92.14;100718.25;5073078;28;20028;-81
2023/04/22 01:44:52;;;;;;;2.85;2.40;;;;;;;6.70;93.19;100714.78;5073229;28;20044;-81
2023/04/22 01:47:17;;;;;;;3.83;2.70;;;;;;;6.71;92.33;100708.78;5073790;28;20039;-81
2023/04/22 01:49:43;;;;;;;3.43;2.80;;;;;;;6.74;91.86;100708.78;5093562;28;20024;-81
2023/04/22 01:52:08;;;;;;;3.13;2.47;;;;;;;6.76;92.17;100707.91;5094144;28;20028;-81
2023/04/22 01:54:34;;;;;;;2.47;2.20;;;;;;;6.78;92.39;100710.47;5093224;28;20017;-81
2023/04/22 01:56:59;;;;;;;2.83;2.50;;;;;;;6.76;92.35;100704.44;5093815;28;20587;-81
2023/04/22 01:59:25;;;;;;;3.40;2.60;;;;;;;6.80;92.49;100706.19;5093376;28;20483;-81
2023/04/22 02:01:50;;;;;;;3.07;2.50;;;;;;;6.78;92.39;100701.03;5092576;28;20383;-81
2023/04/22 02:04:21;;;;;;;2.83;2.40;;;;;;;6.82;92.27;100712.19;5094366;28;20025;-82
2023/04/22 02:06:46;;;;;;;2.67;2.40;;;;;;;6.76;92.51;100696.72;5093276;28;20392;-81
2023/04/22 02:09:11;;;;;;;2.80;2.50;;;;;;;6.83;92.38;100698.44;5092968;28;20032;-82
2023/04/22 02:11:37;;;;;;;2.95;2.40;;;;;;;6.84;92.38;100701.88;5093529;28;20024;-81
2023/04/22 02:14:02;;;;;;;2.53;2.30;;;;;;;6.78;92.30;100693.28;5092608;28;20093;-81
2023/04/22 02:16:27;;;;;;;2.93;2.40;;;;;;;6.86;92.72;100706.19;5092925;28;20016;-81
2023/04/22 02:18:53;;;;;;;2.22;2.03;;;;;;;6.86;92.61;100705.31;5093846;28;20387;-81
2023/04/22 02:21:18;;;;;;;2.87;2.30;;;;;;;6.84;92.37;100707.91;5093207;28;20024;-81
2023/04/22 02:23:43;;;;;;;2.93;2.50;;;;;;;6.85;92.52;100701.88;5092544;28;20170;-81
2023/04/22 02:26:09;;;;;;;2.72;2.33;;;;;;;6.85;92.43;100694.13;5093453;28;20030;-81
2023/04/22 02:28:36;;;;;;;2.78;2.17;;;;;;;6.83;92.66;100700.13;5093288;28;20067;-81
2023/04/22 02:31:02;;;;;;;2.20;2.00;;;;;;;6.82;92.98;100694.13;5092398;28;20020;-81
2023/04/22 02:33:27;;;;;;;2.47;2.23;;;;;;;6.77;92.73;100689.00;5092887;28;20111;-81
2023/04/22 02:35:52;;;;;;;2.67;2.30;;;;;;;6.79;92.35;100688.97;5093324;28;20024;-81
2023/04/22 02:38:18;;;;;;;2.00;1.90;;;;;;;6.78;92.67;100689.84;5092518;28;20042;-81
2023/04/22 02:40:43;;;;;;;2.50;2.15;;;;;;;6.75;93.06;100692.44;5092816;28;20081;-81
2023/04/22 02:43:09;;;;;;;2.60;2.10;;;;;;;6.74;92.64;100683.00;5092846;28;20104;-81
2023/04/22 02:45:34;;;;;;;2.97;2.30;;;;;;;6.73;92.80;100682.13;5091644;28;20032;-81
2023/04/22 02:48:06;;;;;;;2.40;2.20;;;;;;;6.72;92.81;100692.44;5085927;28;20480;-81
2023/04/22 02:50:31;;;;;;;2.80;2.33;;;;;;;6.71;93.09;100693.31;5071858;28;20496;-81
2023/04/22 02:52:56;;;;;;;2.53;2.30;;;;;;;6.70;93.16;100683.84;5072785;28;20036;-82
2023/04/22 02:55:23;;;;;;;2.73;2.13;;;;;;;6.67;93.02;100686.41;5072637;28;20033;-81
2023/04/22 02:57:49;;;;;;;;;;;;;;;6.68;93.05;100686.44;5070405;28;20036;-81
2023/04/22 03:00:15;;;;;;;2.58;2.30;;;;;;;6.64;93.11;100664.94;5073040;28;19916;-81
2023/04/22 03:02:40;;;;;;;2.33;2.10;;;;;;;6.67;93.25;100670.94;5071620;28;20480;-81
2023/04/22 03:05:05;;;;;;;2.57;2.30;;;;;;;6.65;93.23;100678.69;5071810;28;20380;-81
2023/04/22 03:07:31;;;;;;;2.50;2.30;;;;;;;6.65;93.30;100671.81;5072292;28;20021;-82
2023/04/22 03:09:56;;;;;;;2.40;2.20;;;;;;;6.65;93.22;100669.22;5072768;28;20020;-82
2023/04/22 03:12:21;;;;;;;2.40;2.20;;;;;;;6.64;93.48;100675.25;5071579;28;20036;-81
2023/04/22 03:14:47;;;;;;;2.40;2.20;;;;;;;6.63;93.42;100672.69;5072660;28;20103;-81
2023/04/22 03:17:12;;;;;;;2.47;2.25;;;;;;;6.64;93.46;100666.66;5072753;28;20067;-81
2023/04/22 03:19:37;;;;;;;2.30;2.10;;;;;;;6.63;93.44;100657.22;5071377;28;20033;-81
2023/04/22 03:22:02;;;;;;;2.50;2.30;;;;;;;6.65;93.35;100663.22;5072592;28;20086;-81
2023/04/22 03:24:28;;;;;;;2.60;2.20;;;;;;;6.62;93.56;100656.34;5071882;28;20384;-81
2023/04/22 03:26:53;;;;;;;2.33;2.13;;;;;;;6.63;93.71;100658.09;5071842;28;20108;-81
2023/04/22 03:29:18;;;;;;;3.43;2.33;;;;;;;6.61;93.34;100652.06;5071794;28;20491;-81
2023/04/22 03:31:43;;;;;;;2.97;2.40;;;;;;;6.64;93.40;100653.75;5071829;28;20123;-82
2023/04/22 03:34:09;;;;;;;3.00;2.47;;;;;;;6.65;93.59;100652.91;5072161;28;20024;-82
2023/04/22 03:36:34;;;;;;;2.50;2.23;;;;;;;6.62;93.84;100646.03;5072481;28;20166;-81
2023/04/22 03:38:59;;;;;;;2.70;2.37;;;;;;;6.63;93.72;100644.31;5072076;28;20024;-81
2023/04/22 03:41:27;;;;;;;2.97;2.30;;;;;;;6.63;93.42;100640.03;5071360;28;20032;-81
2023/04/22 03:43:52;;;;;;;2.50;2.20;;;;;;;6.61;93.70;100639.16;5072195;28;20103;-81
2023/04/22 03:46:18;;;;;;;2.97;2.50;;;;;;;6.62;93.73;100640.88;5072452;28;20213;-81
2023/04/22 03:48:43;;;;;;;2.42;2.20;;;;;;;6.65;93.77;100637.44;5071178;28;20560;-82
2023/04/22 03:51:08;;;;;;;2.30;2.10;;;;;;;6.67;94.21;100642.56;5071241;28;20037;-81
2023/04/22 03:53:34;;;;;;;2.67;2.10;;;;;;;6.63;93.67;100634.88;5072027;28;20028;-81
2023/04/22 03:55:59;;;;;;;2.92;2.50;;;;;;;6.64;95.15;100633.97;5071364;28;20036;-81
2023/04/22 03:58:24;;;;;;;3.40;2.60;;;;;;;6.62;94.28;100630.56;5071288;28;20028;-81
2023/04/22 04:00:50;;;;;;;3.20;2.60;;;;;;;6.63;95.80;100628.84;5071069;28;20082;-81
2023/04/22 04:03:15;;;;;;;3.70;2.83;;;;;;;6.60;96.41;100624.56;5071931;28;20021;-81
2023/04/22 04:05:40;;;;;;;3.53;2.70;;;;;;;6.57;95.07;100629.72;5071843;28;20354;-81
2023/04/22 04:08:07;;;;;;;3.30;2.43;;;;;;;6.60;94.91;100627.13;5072039;28;20078;-81
2023/04/22 04:10:32;;;;;;;2.75;2.42;;;;;;;6.61;94.75;100623.69;5075648;28;20032;-82
2023/04/22 04:12:57;;;;;;;3.07;2.47;;;;;;;6.62;95.14;100614.22;5075683;28;20036;-81
2023/04/22 04:15:23;;;;;;;2.80;2.40;;;;;;;6.61;94.74;100615.09;5074716;28;20028;-81
2023/04/22 04:17:49;;;;;;;3.07;2.40;;;;;;;6.63;94.43;100624.56;5075387;28;20044;-81
2023/04/22 04:20:15;;;;;;;2.42;2.20;;;;;;;6.64;94.74;100618.50;5075726;28;20016;-81
2023/04/22 04:22:40;;;;;;;3.58;2.38;;;;;;;6.67;94.56;100619.38;5074366;28;20048;-81
2023/04/22 04:25:06;;;;;;;2.80;2.37;;;;;;;6.65;94.55;100619.38;5075311;28;20032;-81
2023/04/22 04:27:31;;;;;;;2.58;2.30;;;;;;;6.67;94.67;100621.94;5075239;28;20028;-81
2023/04/22 04:29:57;;;;;;;2.80;2.30;;;;;;;6.69;94.71;100620.22;5074649;28;20365;-81
2023/04/22 04:32:23;;;;;;;2.33;2.13;;;;;;;6.67;95.05;100609.06;5075044;28;20032;-81
2023/04/22 04:34:48;;;;;;;2.38;2.17;;;;;;;6.67;95.40;100611.63;5075396;28;20058;-81
2023/04/22 04:37:13;;;;;;;2.70;2.30;;;;;;;6.66;94.70;100605.63;5074272;28;20021;-81
2023/04/22 04:39:38;;;;;;;3.70;2.60;;;;;;;6.65;94.79;100615.06;5074855;28;20028;-81
2023/04/22 04:42:04;;;;;;;2.90;2.60;;;;;;;6.65;94.40;100620.22;5074995;28;20103;-81
2023/04/22 04:44:32;;;;;;;3.25;2.50;;;;;;;6.64;94.83;100615.09;5074096;28;20033;-81
2023/04/22 04:46:58;;;;;;;2.88;2.33;;;;;;;6.66;94.77;100615.94;5075160;28;20435;-81
2023/04/22 04:49:23;;;;;;;2.80;2.43;;;;;;;6.67;94.49;100616.78;5091562;28;20067;-81
2023/04/22 04:51:51;;;;;;;2.50;2.30;;;;;;;6.68;95.01;100618.50;5094408;28;20059;-81
2023/04/22 04:54:16;;;;;;;2.92;2.40;;;;;;;6.69;95.15;100615.94;5094948;28;20034;-81
2023/04/22 04:56:42;;;;;;;2.70;2.40;;;;;;;6.68;95.09;100621.97;5094604;28;20020;-81
2023/04/22 04:59:08;;;;;;;2.72;2.35;;;;;;;6.69;94.94;100609.91;5094373;28;20118;-81
2023/04/22 05:01:34;;;;;;;2.50;2.20;;;;;;;6.74;95.16;100621.09;5094530;28;20468;-81
2023/04/22 05:03:59;;;;;;;3.88;2.65;;;;;;;6.75;94.92;100620.22;5094436;28;20043;-81
2023/04/22 05:06:25;;;;;;;3.53;2.30;;;;;;;6.78;95.31;100617.63;5094206;28;20487;-81
2023/04/22 05:08:51;;;;;;;2.88;2.45;;;;;;;6.80;95.16;100614.19;5094743;28;20372;-81
2023/04/22 05:11:16;;;;;;;3.03;2.60;;;;;;;6.80;94.80;100614.19;5093942;28;20023;-81
2023/04/22 05:13:41;;;;;;;3.33;2.60;;;;;;;6.84;94.96;100629.63;5094420;28;20472;-81
2023/04/22 05:16:07;;;;;;;3.00;2.50;;;;;;;6.84;95.18;100620.19;5094794;28;20023;-81
2023/04/22 05:18:32;;;;;;;4.00;2.88;;;;;;;6.88;95.02;100618.44;5093332;28;20108;-81
2023/04/22 05:21:03;;;;;;;3.37;2.60;;;;;;;6.87;96.17;100604.69;5093797;28;20028;-82
2023/04/22 05:23:29;;;;;;;3.65;2.72;;;;;;;6.88;95.27;100600.41;5094085;28;20027;-81
2023/04/22 05:25:55;;;;;;;2.80;2.50;;;;;;;6.90;95.37;100609.84;5093554;28;20036;-82
2023/04/22 05:28:20;;;;;;;3.03;2.50;;;;;;;6.95;95.32;100613.28;5094437;28;20419;-81
2023/04/22 05:30:46;;;;;;;2.53;2.25;;;;;;;6.97;95.93;100610.66;5094542;28;20319;-81
2023/04/22 05:33:11;;;;;;;2.77;2.43;;;;;;;7.02;95.70;100613.22;5093548;28;20034;-82
2023/04/22 05:35:36;;;;;;;2.87;2.40;;;;;;;7.02;95.50;100605.50;5093939;28;20028;-81
2023/04/22 05:38:02;;;;;;;3.13;2.40;;;;;;;7.13;95.89;100613.19;5094191;28;20114;-81
2023/04/22 05:40:30;;;;;;;2.90;2.30;;;;;;;7.19;95.87;100606.28;5092905;28;20027;-81
2023/04/22 05:42:56;;;;;;;3.30;2.58;;;;;;;7.26;95.87;100605.38;5094420;28;20381;-81
2023/04/22 05:45:21;;;;;;;2.85;2.40;;;;;;;7.34;95.92;100609.63;5093871;28;20028;-81
2023/04/22 05:47:47;;;;;;;3.73;2.60;;;;;;;7.44;95.86;100610.44;5093131;28;20100;-80
2023/04/22 05:50:13;;;;;;;4.03;2.80;;;;;;;7.51;96.67;100605.22;5092640;28;20042;-81
2023/04/22 05:52:38;;;;;;;2.88;2.60;;;;;;;7.57;95.89;100612.09;5093598;28;20116;-82
2023/04/22 05:55:04;;;;;;;2.93;2.63;;;;;;;7.64;96.85;100612.91;5093225;28;20191;-81
2023/04/22 05:57:30;;;;;;;3.20;2.65;;;;;;;7.68;96.53;100612.00;5093590;28;20070;-81
2023/04/22 05:59:56;;;;;;;2.90;2.60;;;;;;;7.72;96.07;100617.13;5093861;28;20031;-81
2023/04/22 06:02:21;;;;;;;2.77;2.47;;;;;;;7.78;96.39;100605.88;5092697;28;20024;-81
2023/04/22 06:04:46;;;;;;;2.90;2.50;;;;;;;7.83;97.74;100591.22;5093401;28;20123;-81
2023/04/22 06:07:14;;;;;;;4.87;3.10;;;;;;;7.86;98.01;100598.97;5093783;28;20043;-81
2023/04/22 06:09:40;;;;;;;5.63;3.83;;;;;;;7.95;100.00;100600.59;5092697;28;20051;-82
2023/04/22 06:12:05;;;;;;;5.40;3.60;;;;;;;8.00;99.31;100605.72;5093707;28;20495;-82
2023/04/22 06:14:36;;;;;;;10.03;5.40;;;;;;;8.05;100.00;100606.53;5092523;28;20016;-85
2023/04/22 06:17:02;;;;;;;9.13;5.18;;;;;;;8.09;99.62;100595.31;5093403;28;20032;-81
2023/04/22 06:19:27;;;;;;;10.83;6.20;;;;;;;8.17;100.00;100603.84;5093191;28;20024;-81
2023/04/22 06:21:53;;;;;;;12.73;7.20;;;;;;;8.18;100.00;100603.00;5092872;28;20020;-81
2023/04/22 06:24:18;;;;;;;10.23;6.30;;;;;;;8.24;100.00;100603.78;5093310;28;20028;-81
2023/04/22 06:26:43;;;;;;;10.83;5.97;;;;;;;8.27;99.26;100596.00;5093204;28;20425;-81
2023/04/22 06:29:09;;;;;;;15.60;9.00;;;;;;;8.31;100.00;100584.78;5092602;28;20038;-82
2023/04/22 06:31:34;;;;;;;14.70;8.37;;;;;;;8.35;100.00;100587.31;5093293;28;20382;-81
2023/04/22 06:33:59;;;;;;;16.50;9.07;;;;;;;8.40;100.00;100587.25;5093279;28;20063;-81
2023/04/22 06:36:26;;;;;;;14.53;8.07;;;;;;;8.44;100.00;100594.13;5092227;28;20066;-81
2023/04/22 06:38:52;;;;;;;11.60;7.03;;;;;;;8.52;99.88;100595.78;5092997;28;20027;-81
2023/04/22 06:41:17;;;;;;;11.27;6.47;;;;;;;8.62;100.00;100589.66;5093277;28;20039;-81
2023/04/22 06:43:43;;;;;;;8.80;5.20;;;;;;;8.73;100.00;100590.38;5092344;28;20024;-81
2023/04/22 06:46:11;;;;;;;9.23;5.60;;;;;;;8.81;99.01;100585.97;5093338;28;20052;-81
2023/04/22 06:48:36;;;;;;;10.80;6.30;;;;;;;8.93;100.00;100582.38;5082610;28;20053;-81
2023/04/22 06:51:01;;;;;;;10.43;6.10;;;;;;;9.03;99.77;100580.50;5072078;28;20029;-81
2023/04/22 06:53:27;;;;;;;9.23;5.70;;;;;;;9.15;100.00;100570.88;5072425;28;20024;-81
2023/04/22 06:55:53;;;;;;;9.27;5.50;;;;;;;9.24;100.00;100571.59;5072967;28;20478;-84
2023/04/22 06:58:19;;;;;;;8.77;5.28;;;;;;;9.40;100.00;100569.66;5072175;28;20036;-85
2023/04/22 07:00:47;;;;;;;8.93;5.67;;;;;;;9.65;97.83;100582.22;5072958;28;20376;-84
2023/04/22 07:03:12;;;;;;;10.90;6.40;;;;;;;10.73;96.50;100578.63;5072740;28;20056;-84
2023/04/22 07:05:37;;;;;;;11.53;6.90;;;;;;;12.51;93.95;100582.25;5071114;28;20060;-84
2023/04/22 07:08:03;;;;;;;10.43;6.00;;;;;;;14.32;84.34;100581.03;5072024;28;20037;-85
2023/04/22 07:10:28;;;;;;;10.10;5.30;;;;;;;15.95;82.58;100582.72;5072283;28;20484;-84
2023/04/22 07:12:56;;;;;;;10.50;6.17;;;;;;;16.98;77.42;100577.38;5071967;28;20032;-84
2023/04/22 07:15:21;;;;;;;10.38;6.22;;;;;;;17.10;75.53;100568.94;5072040;28;20032;-84
2023/04/22 07:17:46;;;;;;;10.67;6.10;;;;;;;16.77;76.74;100576.53;5071708;28;20028;-84
2023/04/22 07:20:12;;;;;;;10.80;6.33;;;;;;;15.93;74.83;100574.06;5072392;28;20032;-82
2023/04/22 07:22:37;;;;;;;10.27;6.03;;;;;;;15.07;77.18;100573.97;5072056;28;20025;-82
2023/04/22 07:25:03;;;;;;;11.97;6.60;;;;;;;14.24;78.25;100565.63;5071488;28;20032;-83
2023/04/22 07:27:28;;;;;;;8.70;5.50;;;;;;;13.56;81.15;100558.34;5072209;28;20103;-86
2023/04/22 07:29:54;;;;;;;7.50;4.90;;;;;;;13.19;82.83;100572.47;5072303;28;20583;-86
2023/04/22 07:32:19;;;;;;;8.93;5.40;;;;;;;12.91;84.10;100577.66;5071340;28;20025;-86
2023/04/22 07:34:45;;;;;;;11.10;5.97;;;;;;;12.70;85.27;100580.00;5072216;28;20029;-86
2023/04/22 07:37:10;;;;;;;11.53;6.60;;;;;;;12.49;86.13;100582.31;5072263;28;20020;-86
2023/04/22 07:39:35;;;;;;;12.73;6.83;;;;;;;12.31;87.66;100570.66;5071176;28;20021;-86
2023/04/22 07:42:01;;;;;;;9.80;5.80;;;;;;;12.25;88.95;100577.75;5072395;28;20048;-86
2023/04/22 07:44:26;;;;;;;11.43;6.40;;;;;;;12.17;88.48;100571.00;5075525;28;20017;-87
2023/04/22 07:46:52;;;;;;;13.80;7.30;;;;;;;12.17;90.52;100576.19;5075572;28;20051;-89
2023/04/22 07:49:18;;;;;;;10.82;6.50;;;;;;;12.14;89.55;100576.28;5091434;28;20033;-87
2023/04/22 07:51:44;;;;;;;8.97;5.60;;;;;;;12.17;89.65;100578.78;5095633;28;20024;-88
2023/04/22 07:54:10;;;;;;;10.37;5.70;;;;;;;12.20;89.74;100578.72;5095857;28;20027;-86
2023/04/22 07:56:35;;;;;;;9.00;5.53;;;;;;;12.16;91.87;100564.06;5095500;28;20039;-86
2023/04/22 07:59:00;;;;;;;10.67;6.70;;;;;;;12.12;91.38;100553.78;5096397;28;20031;-86
2023/04/22 08:01:26;;;;;;;10.73;5.87;;;;;;;12.15;90.49;100558.94;5094680;28;20040;-86
2023/04/22 08:03:51;;;;;;;8.60;5.10;;;;;;;12.18;90.78;100554.47;5095178;28;20035;-86
2023/04/22 08:06:16;;;;;;;7.37;4.70;;;;;;;12.31;90.71;100560.22;5095653;28;20020;-86
2023/04/22 08:08:41;;;;;;;6.30;4.40;;;;;;;12.42;90.96;100544.31;5094895;28;20024;-86
2023/04/22 08:11:07;;;;;;;12.13;6.97;;;;;;;12.52;90.87;100537.09;5095953;28;20020;-86
2023/04/22 08:13:32;;;;;;;13.83;7.90;;;;;;;12.54;91.00;100529.25;5095578;28;20152;-86
2023/04/22 08:15:59;;;;;;;15.70;9.27;;;;;;;12.51;89.73;100531.03;5094764;28;20030;-86
2023/04/22 08:18:25;;;;;;;12.43;7.30;;;;;;;12.61;90.53;100538.59;5095041;28;20024;-85
2023/04/22 08:20:50;;;;;;;11.07;6.20;;;;;;;12.78;89.75;100530.28;5095723;28;20035;-86
2023/04/22 08:23:15;;;;;;;10.87;6.37;;;;;;;13.00;90.40;100530.50;5093263;28;20032;-86
2023/04/22 08:25:41;;;;;;;9.83;5.70;;;;;;;13.24;91.61;100538.47;5094787;28;20092;-85
2023/04/22 08:28:06;;;;;;;9.73;5.57;;;;;;;13.43;90.16;100529.19;5095134;28;20020;-88
2023/04/22 08:30:31;;;;;;;9.53;5.37;;;;;;;13.61;88.95;100528.63;5095640;28;20073;-87
2023/04/22 08:32:57;;;;;;;8.37;5.07;;;;;;;13.70;87.82;100529.19;5095859;28;20024;-88
2023/04/22 08:35:37;;;;;;;8.00;4.90;;;;;;;13.78;87.96;100528.94;5093615;28;20063;-88
2023/04/22 08:38:02;;;;;;;6.82;4.10;;;;;;;13.78;88.20;100518.50;5095470;28;20039;-88
2023/04/22 08:40:28;;;;;;;7.53;4.47;;;;;;;13.93;87.05;100534.50;5094968;28;20028;-88
2023/04/22 08:42:54;;;;;;;7.37;4.60;;;;;;;13.96;85.23;100517.00;5095117;28;20463;-88
2023/04/22 08:45:21;;;;;;;7.38;4.75;;;;;;;14.11;86.37;100517.38;5094754;28;20028;-81
2023/04/22 08:47:47;;;;;;;10.35;6.35;;;;;;;14.31;82.79;100494.00;5091972;28;20053;-90
2023/04/22 08:50:13;;;;;;;12.45;6.43;;;;;;;14.33;84.74;100480.94;5075212;28;20104;-94
2023/04/22 08:52:40;;;;;;;9.33;5.73;;;;;;;14.48;84.88;100492.56;5074959;28;20112;-86
2023/04/22 08:55:06;;;;;;;11.32;6.30;;;;;;;14.53;83.90;100488.00;5073871;28;20028;-86
2023/04/22 08:57:31;;;;;;;9.80;5.57;;;;;;;14.65;80.65;100484.91;5074243;28;20017;-86
2023/04/22 08:59:58;;;;;;;10.37;6.30;;;;;;;14.71;82.37;100483.88;5074843;28;20056;-85
2023/04/22 09:02:23;;;;;;;9.63;5.32;;;;;;;14.87;83.81;100491.97;5074292;28;20043;-86
2023/04/22 09:04:52;;;;;;;9.37;5.70;;;;;;;15.03;82.20;100492.22;5074023;28;20036;-86
2023/04/22 09:07:27;;;;;;;8.98;5.40;;;;;;;15.12;80.69;100485.78;5074379;28;20361;-86
2023/04/22 09:09:58;;;;;;;9.77;5.47;;;;;;;15.17;81.40;100494.28;5074258;28;20484;-86
2023/04/22 09:12:32;;;;;;;9.02;5.40;;;;;;;15.17;80.97;100490.81;5067430;28;20047;-87
2023/04/22 09:14:58;;;;;;;9.65;5.22;;;;;;;15.28;80.82;100483.38;5074183;28;20464;-86
2023/04/22 09:17:34;;;;;;;8.70;4.97;;;;;;;15.36;81.22;100470.88;5073420;28;20107;-86
2023/04/22 09:20:01;;;;;;;7.95;4.80;;;;;;;15.46;80.09;100465.25;5074302;28;20028;-86
2023/04/22 09:22:28;;;;;;;7.28;4.70;;;;;;;15.62;79.46;100471.53;5073350;28;20431;-86
2023/04/22 09:24:54;;;;;;;9.10;5.10;;;;;;;15.71;78.33;100481.59;5073574;28;20032;-86
2023/04/22 09:27:23;;;;;;;9.53;5.20;;;;;;;15.72;78.38;100477.22;5073875;28;20036;-86
2023/04/22 09:29:51;;;;;;;6.05;4.10;;;;;;;15.85;79.71;100477.56;5072632;28;20031;-86
2023/04/22 09:32:18;;;;;;;6.97;4.28;;;;;;;16.01;79.10;100472.53;5073352;28;20468;-86
2023/04/22 09:34:50;;;;;;;5.60;3.90;;;;;;;16.19;78.30;100465.63;5073899;28;20028;-88
2023/04/22 09:37:25;;;;;;;5.30;3.92;;;;;;;16.46;77.75;100468.75;5074391;28;20028;-90
2023/04/22 09:39:52;;;;;;;6.65;4.38;;;;;;;16.55;76.26;100464.88;5073866;28;20499;-86
2023/04/22 09:42:18;;;;;;;;;;;;;;;16.75;74.41;100463.94;5074092;28;20033;-87
2023/04/22 09:44:45;;;;;;;7.55;4.63;;;;;;;16.86;75.09;100459.97;5073407;28;19966;-87
2023/04/22 09:47:11;;;;;;;7.43;4.40;;;;;;;16.95;75.28;100456.91;5072889;28;20024;-88
2023/04/22 09:49:39;;;;;;;5.85;3.92;;;;;;;17.10;73.53;100465.81;5073455;28;20063;-87
2023/04/22 09:52:20;;;;;;;7.32;4.70;;;;;;;17.21;73.92;100481.03;5073808;28;20020;-87
2023/04/22 09:54:55;;;;;;;7.13;4.30;;;;;;;17.42;73.92;100485.22;5073094;28;20488;-84
2023/04/22 09:57:21;;;;;;;7.30;4.93;;;;;;;17.47;72.73;100471.88;5073446;28;20456;-85
2023/04/22 09:59:49;;;;;;;7.13;4.50;;;;;;;17.55;74.59;100463.63;5072765;28;20093;-86
2023/04/22 10:02:14;;;;;;;7.93;4.28;;;;;;;17.77;72.39;100470.38;5073384;28;20353;-85
2023/04/22 10:04:41;;;;;;;4.60;3.50;;;;;;;17.95;73.92;100476.47;5073122;28;20082;-86
2023/04/22 10:07:07;;;;;;;5.72;3.95;;;;;;;18.15;66.00;100470.19;5072382;28;20099;-87
2023/04/22 10:09:33;;;;;;;6.63;3.73;;;;;;;18.19;70.65;100469.09;5074224;28;20024;-88
2023/04/22 10:11:59;;;;;;;6.40;4.63;;;;;;;18.11;66.36;100469.50;5074141;28;20115;-90
2023/04/22 10:14:25;;;;;;;7.10;4.30;;;;;;;18.09;66.72;100470.50;5074188;28;20282;-91
2023/04/22 10:17:11;;;;;;;6.43;4.05;;;;;;;18.20;68.87;100462.91;5074652;28;20012;-93
2023/04/22 10:19:51;;;;;;;6.22;4.28;;;;;;;18.44;70.23;100479.13;5074128;28;20040;-90
2023/04/22 10:22:16;;;;;;;5.55;4.00;;;;;;;18.53;69.71;100480.41;5073412;28;20119;-89
2023/04/22 10:24:57;;;;;;;5.67;3.90;;;;;;;18.63;69.28;100476.34;5073781;28;20055;-89
2023/04/22 10:27:38;;;;;;;5.97;3.63;;;;;;;18.85;70.10;100488.31;5073341;28;20365;-90
2023/04/22 10:30:21;;;;;;;4.03;3.15;;;;;;;18.93;69.58;100483.47;5074149;28;20033;-92
2023/04/22 10:32:47;;;;;;;6.50;3.97;;;;;;;18.86;65.37;100482.13;5074147;28;20036;-92
2023/04/22 10:35:13;;;;;;;5.27;3.73;;;;;;;18.94;68.25;100485.19;5074256;28;20029;-92
2023/04/22 10:37:43;;;;;;;6.15;4.05;;;;;;;19.11;66.12;100484.22;5073731;28;20016;-91
2023/04/22 10:40:16;;;;;;;7.07;4.63;;;;;;;19.21;66.04;100467.91;5074448;28;20094;-93
2023/04/22 10:45:39;;;;;;;8.52;5.10;;;;;;;19.08;62.77;100452.00;5011761;28;20380;-94
2023/04/22 10:48:14;;;;;;;7.23;4.40;;;;;;;18.92;59.55;100452.84;5014931;28;20041;-94
2023/04/22 10:50:39;;;;;;;6.63;4.32;;;;;;;18.82;64.53;100460.41;5072140;28;20365;-89
2023/04/22 10:53:36;;;;;;;5.13;3.73;;;;;;;18.74;65.67;100467.03;5093686;28;20039;-90
2023/04/22 10:56:16;;;;;;;6.20;4.05;;;;;;;18.42;64.60;100467.00;5093467;28;20043;-89
2023/04/22 10:58:42;;;;;;;7.07;4.38;;;;;;;18.22;65.23;100463.69;5093103;28;20031;-88
2023/04/22 11:01:14;;;;;;;4.90;3.37;;;;;;;18.04;66.46;100465.50;5093406;28;20063;-88
2023/04/22 11:03:39;;;;;;;4.43;3.05;;;;;;;17.89;66.96;100477.63;5092809;28;20032;-90
2023/04/22 11:06:14;;;;;;;2.93;2.60;;;;;;;17.77;66.95;100486.13;5093247;28;20025;-89
2023/04/22 11:08:47;;;;;;;5.07;3.30;;;;;;;17.60;67.03;100478.19;5092965;28;20028;-89
2023/04/22 11:11:13;;;;;;;3.20;2.65;;;;;;;17.40;66.12;100479.19;5093075;28;20055;-89
2023/04/22 11:13:40;;;;;;;3.20;2.65;;;;;;;17.26;67.96;100487.75;5092990;28;20047;-90
2023/04/22 11:16:07;;;;;;;3.72;2.90;;;;;;;17.12;67.95;100493.66;5093276;28;20035;-89
2023/04/22 11:18:32;;;;;;;3.30;2.63;;;;;;;16.96;68.74;100480.44;5094308;28;20093;-90
2023/04/22 11:21:03;;;;;;;4.07;2.93;;;;;;;16.89;69.28;100486.03;5097839;28;20460;-90
2023/04/22 11:23:30;;;;;;;3.30;2.50;;;;;;;16.79;71.71;100477.75;5097781;28;20095;-91
2023/04/22 11:26:02;;;;;;;2.75;2.45;;;;;;;16.70;72.79;100476.41;5097809;28;20024;-92
2023/04/22 11:28:28;;;;;;;2.65;2.17;;;;;;;16.62;73.18;100483.78;5097499;28;20016;-92